createdAt,value
2023-04-18T00:02:53.917Z,91.10
2023-04-18T00:06:36.029Z,91.10
2023-04-18T00:10:17.803Z,91.20
2023-04-18T00:13:59.597Z,91.10
2023-04-18T00:17:41.482Z,91.20
2023-04-18T00:21:25.515Z,91.30
2023-04-18T00:25:07.799Z,91.40
2023-04-18T00:28:51.588Z,91.40
2023-04-18T00:32:33.430Z,91.30
2023-04-18T00:36:15.222Z,91.30
2023-04-18T00:39:57.021Z,91.40
2023-04-18T00:43:38.760Z,91.40
2023-04-18T00:47:20.601Z,91.40
2023-04-18T00:51:02.415Z,91.50
2023-04-18T00:54:45.168Z,91.50
2023-04-18T00:58:27.364Z,91.50
2023-04-18T01:02:09.290Z,91.50
2023-04-18T01:05:51.261Z,91.50
2023-04-18T01:09:33.093Z,91.50
2023-04-18T01:13:17.077Z,91.50
2023-04-18T01:16:58.910Z,91.40
2023-04-18T01:20:45.789Z,91.50
2023-04-18T01:24:29.805Z,91.50
2023-04-18T01:28:14.066Z,91.50
2023-04-18T01:31:55.923Z,91.60
2023-04-18T01:35:37.781Z,91.70
2023-04-18T01:39:19.566Z,91.90
2023-04-18T01:43:01.443Z,92.10
2023-04-18T01:46:43.287Z,92.30
2023-04-18T01:50:25.176Z,92.30
2023-04-18T01:54:07.020Z,92.30
2023-04-18T01:57:50.762Z,92.40
2023-04-18T02:01:32.536Z,92.50
2023-04-18T02:05:14.351Z,92.50
2023-04-18T02:08:56.168Z,92.40
2023-04-18T02:12:37.884Z,92.30
2023-04-18T02:16:19.693Z,92.30
2023-04-18T02:20:01.490Z,92.20
2023-04-18T02:23:43.270Z,92.10
2023-04-18T02:27:24.984Z,92.10
2023-04-18T02:31:07.438Z,92.00
2023-04-18T02:34:49.193Z,92.00
2023-04-18T02:38:31.817Z,92.00
2023-04-18T02:42:13.565Z,92.00
2023-04-18T02:45:55.933Z,91.90
2023-04-18T02:49:37.719Z,91.90
2023-04-18T02:53:19.639Z,91.90
2023-04-18T02:57:01.545Z,92.00
2023-04-18T03:00:43.299Z,92.10
2023-04-18T03:04:25.471Z,92.20
2023-04-18T03:08:07.225Z,92.40
2023-04-18T03:11:48.945Z,92.40
2023-04-18T03:15:33.729Z,92.50
2023-04-18T03:19:15.711Z,92.60
2023-04-18T03:22:57.505Z,92.70
2023-04-18T03:26:39.450Z,92.70
2023-04-18T03:30:21.381Z,92.70
2023-04-18T03:34:03.100Z,92.70
2023-04-18T03:37:45.013Z,92.90
2023-04-18T03:41:26.731Z,92.80
2023-04-18T03:45:09.089Z,92.80
2023-04-18T03:48:51.092Z,92.80
2023-04-18T03:52:32.859Z,92.80
2023-04-18T03:56:14.760Z,92.90
2023-04-18T03:59:56.637Z,92.90
2023-04-18T04:03:38.502Z,93.00
2023-04-18T04:07:20.419Z,93.10
2023-04-18T04:11:02.147Z,93.20
2023-04-18T04:14:43.970Z,93.20
2023-04-18T04:18:30.952Z,93.50
2023-04-18T04:22:12.798Z,93.40
2023-04-18T04:25:55.778Z,93.40
2023-04-18T04:29:39.156Z,93.50
2023-04-18T04:33:28.425Z,93.60
2023-04-18T04:37:10.286Z,93.50
2023-04-18T04:40:52.915Z,93.70
2023-04-18T04:44:35.607Z,93.70
2023-04-18T04:48:18.833Z,93.70
2023-04-18T04:52:02.703Z,93.70
2023-04-18T04:55:44.719Z,93.70
2023-04-18T04:59:26.522Z,93.80
2023-04-18T05:03:08.491Z,93.90
2023-04-18T05:06:50.777Z,93.90
2023-04-18T05:10:33.101Z,93.90
2023-04-18T05:14:15.219Z,94.00
2023-04-18T05:17:58.042Z,94.10
2023-04-18T05:21:39.904Z,94.10
2023-04-18T05:25:21.705Z,94.20
2023-04-18T05:29:03.489Z,94.20
2023-04-18T05:32:45.267Z,94.20
2023-04-18T05:36:27.142Z,94.40
2023-04-18T05:40:09.392Z,94.40
2023-04-18T05:44:04.374Z,94.40
2023-04-18T05:47:47.343Z,94.50
2023-04-18T05:51:29.275Z,94.50
2023-04-18T05:55:11.260Z,94.50
2023-04-18T05:58:53.025Z,94.50
2023-04-18T06:02:34.958Z,94.50
2023-04-18T06:06:16.965Z,94.50
2023-04-18T06:09:58.697Z,94.50
2023-04-18T06:13:40.951Z,94.40
2023-04-18T06:17:22.732Z,94.40
2023-04-18T06:21:04.782Z,94.30
2023-04-18T06:24:46.529Z,94.40
2023-04-18T06:28:28.291Z,94.30
2023-04-18T06:32:10.386Z,94.20
2023-04-18T06:35:52.758Z,94.20
2023-04-18T06:39:34.478Z,94.20
2023-04-18T06:43:16.284Z,94.10
2023-04-18T06:46:58.302Z,94.00
2023-04-18T06:50:40.269Z,93.90
2023-04-18T06:54:22.139Z,93.80
2023-04-18T06:58:05.492Z,93.80
2023-04-18T07:01:47.659Z,93.60
2023-04-18T07:05:29.757Z,93.60
2023-04-18T07:09:11.523Z,93.30
2023-04-18T07:12:54.434Z,93.20
2023-04-18T07:16:36.260Z,93.00
2023-04-18T07:22:03.862Z,93.70
2023-04-18T07:25:45.840Z,92.80
2023-04-18T07:29:27.711Z,92.60
2023-04-18T07:33:09.599Z,92.40
2023-04-18T07:36:54.038Z,92.20
2023-04-18T07:40:35.897Z,92.00
2023-04-18T07:44:18.300Z,92.20
2023-04-18T07:48:01.816Z,92.00
2023-04-18T07:51:43.637Z,91.30
2023-04-18T07:55:25.451Z,90.70
2023-04-18T07:59:07.248Z,90.60
2023-04-18T08:02:49.139Z,90.00
2023-04-18T08:06:31.167Z,89.20
2023-04-18T08:10:12.948Z,89.40
2023-04-18T08:13:54.742Z,89.50
2023-04-18T08:17:37.599Z,89.60
2023-04-18T08:21:20.007Z,88.60
2023-04-18T08:25:05.525Z,88.40
2023-04-18T08:28:47.760Z,88.40
2023-04-18T08:32:31.277Z,88.10
2023-04-18T08:36:13.125Z,87.20
2023-04-18T08:39:54.912Z,86.80
2023-04-18T08:43:38.104Z,86.40
2023-04-18T08:47:20.769Z,86.00
2023-04-18T08:51:03.110Z,85.50
2023-04-18T08:54:46.986Z,84.30
2023-04-18T08:58:33.767Z,84.10
2023-04-18T09:02:15.971Z,83.20
2023-04-18T09:06:13.652Z,82.10
2023-04-18T09:09:59.737Z,83.60
2023-04-18T09:13:46.292Z,80.60
2023-04-18T09:17:35.684Z,81.70
2023-04-18T09:21:19.468Z,82.30
2023-04-18T09:25:01.248Z,81.50
2023-04-18T09:28:43.226Z,80.70
2023-04-18T09:32:30.604Z,80.60
2023-04-18T09:36:23.532Z,81.90
2023-04-18T09:40:20.606Z,79.40
2023-04-18T09:44:15.649Z,79.10
2023-04-18T09:47:57.710Z,77.00
2023-04-18T09:51:42.120Z,76.50
2023-04-18T09:55:24.069Z,74.40
2023-04-18T09:59:09.941Z,70.00
2023-04-18T10:02:58.266Z,70.30
2023-04-18T10:06:42.124Z,68.20
2023-04-18T10:10:24.856Z,67.30
2023-04-18T10:14:13.140Z,67.60
2023-04-18T10:18:06.237Z,68.60
2023-04-18T10:21:56.373Z,69.00
2023-04-18T10:25:38.126Z,66.70
2023-04-18T10:29:44.334Z,62.60
2023-04-18T10:33:35.224Z,59.60
2023-04-18T10:37:26.584Z,57.80
2023-04-18T10:41:27.605Z,56.60
2023-04-18T10:45:23.576Z,62.70
2023-04-18T10:49:17.433Z,59.60
2023-04-18T10:52:59.185Z,70.60
2023-04-18T10:56:51.113Z,50.70
2023-04-18T11:00:33.057Z,48.60
2023-04-18T11:04:15.395Z,46.90
2023-04-18T11:07:57.574Z,46.70
2023-04-18T11:11:39.855Z,46.90
2023-04-18T11:15:25.771Z,44.50
2023-04-18T11:19:21.743Z,46.10
2023-04-18T11:23:03.487Z,50.90
2023-04-18T11:26:45.293Z,46.60
2023-04-18T11:30:27.662Z,46.30
2023-04-18T11:34:09.396Z,46.90
2023-04-18T11:37:51.323Z,45.70
2023-04-18T11:41:33.125Z,46.60
2023-04-18T11:45:16.206Z,49.20
2023-04-18T11:48:57.992Z,48.30
2023-04-18T11:52:41.509Z,47.30
2023-04-18T11:56:23.257Z,47.20
2023-04-18T12:00:07.523Z,49.00
2023-04-18T12:04:08.020Z,47.60
2023-04-18T12:07:50.023Z,51.40
2023-04-18T12:11:31.757Z,44.60
2023-04-18T12:15:16.569Z,46.20
2023-04-18T12:19:01.374Z,46.10
2023-04-18T12:22:51.619Z,46.80
2023-04-18T12:26:33.433Z,48.10
2023-04-18T12:30:15.887Z,47.90
2023-04-18T12:33:59.987Z,48.90
2023-04-18T12:37:41.900Z,48.00
2023-04-18T12:41:23.638Z,48.40
2023-04-18T12:45:07.747Z,47.00
2023-04-18T12:48:49.495Z,46.50
2023-04-18T12:52:31.680Z,48.10
2023-04-18T12:56:13.456Z,48.10
2023-04-18T12:59:55.344Z,46.70
2023-04-18T13:03:39.699Z,48.00
2023-04-18T13:07:21.663Z,46.60
2023-04-18T13:11:03.394Z,46.20
2023-04-18T13:14:45.288Z,47.20
2023-04-18T13:18:27.016Z,48.50
2023-04-18T13:22:08.837Z,47.50
2023-04-18T13:25:50.815Z,48.80
2023-04-18T13:29:32.700Z,47.70
2023-04-18T13:33:15.452Z,48.30
2023-04-18T13:36:58.967Z,45.20
2023-04-18T13:40:40.855Z,44.10
2023-04-18T13:44:24.821Z,44.90
2023-04-18T13:48:06.988Z,44.50
2023-04-18T13:51:50.551Z,45.50
2023-04-18T13:55:32.278Z,50.10
2023-04-18T13:59:15.049Z,44.80
2023-04-18T14:02:57.601Z,46.20
2023-04-18T14:06:39.530Z,46.80
2023-04-18T14:10:21.697Z,46.90
2023-04-18T14:14:03.589Z,47.20
2023-04-18T14:17:46.028Z,47.60
2023-04-18T14:21:29.047Z,46.70
2023-04-18T14:25:10.995Z,45.80
2023-04-18T14:28:52.793Z,46.70
2023-04-18T14:32:35.488Z,49.20
2023-04-18T14:36:17.438Z,47.80
2023-04-18T14:39:59.419Z,49.70
2023-04-18T14:43:41.190Z,49.50
2023-04-18T14:47:24.327Z,50.10
2023-04-18T14:51:06.913Z,50.00
2023-04-18T14:54:48.958Z,49.90
2023-04-18T14:58:30.747Z,49.60
2023-04-18T15:02:12.582Z,49.60
2023-04-18T15:05:55.016Z,49.60
2023-04-18T15:09:39.807Z,50.30
2023-04-18T15:13:21.579Z,51.50
2023-04-18T15:17:04.767Z,51.60
2023-04-18T15:20:47.374Z,52.00
2023-04-18T15:24:29.203Z,51.80
2023-04-18T15:28:11.896Z,53.30
2023-04-18T15:31:53.721Z,51.90
2023-04-18T15:35:36.011Z,52.30
2023-04-18T15:39:21.588Z,53.40
2023-04-18T15:43:04.128Z,54.30
2023-04-18T15:46:45.952Z,54.80
2023-04-18T15:50:27.889Z,54.40
2023-04-18T15:54:09.673Z,54.90
2023-04-18T15:57:51.407Z,55.00
2023-04-18T16:01:33.541Z,55.50
2023-04-18T16:05:16.073Z,56.30
2023-04-18T16:08:58.257Z,56.00
2023-04-18T16:12:40.645Z,57.30
2023-04-18T16:16:22.470Z,57.30
2023-04-18T16:20:06.172Z,57.40
2023-04-18T16:23:48.835Z,58.40
2023-04-18T16:27:30.914Z,57.90
2023-04-18T16:31:14.528Z,58.00
2023-04-18T16:34:56.279Z,58.80
2023-04-18T16:38:38.084Z,58.40
2023-04-18T16:42:19.805Z,59.00
2023-04-18T16:46:01.780Z,59.10
2023-04-18T16:49:44.799Z,59.00
2023-04-18T16:53:26.607Z,59.90
2023-04-18T16:57:08.371Z,59.20
2023-04-18T17:00:50.310Z,59.50
2023-04-18T17:04:32.180Z,60.30
2023-04-18T17:08:13.985Z,60.70
2023-04-18T17:11:55.704Z,61.10
2023-04-18T17:15:38.268Z,61.50
2023-04-18T17:19:20.008Z,61.00
2023-04-18T17:23:01.999Z,60.00
2023-04-18T17:26:43.713Z,61.00
2023-04-18T17:30:25.473Z,61.10
2023-04-18T17:34:07.418Z,61.20
2023-04-18T17:37:49.788Z,60.90
2023-04-18T17:41:34.794Z,61.30
2023-04-18T17:45:17.698Z,61.50
2023-04-18T17:48:59.695Z,61.20
2023-04-18T17:52:42.009Z,62.40
2023-04-18T17:56:23.840Z,62.80
2023-04-18T18:00:10.469Z,62.60
2023-04-18T18:03:53.801Z,63.70
2023-04-18T18:07:38.291Z,62.70
2023-04-18T18:11:21.400Z,62.50
2023-04-18T18:15:03.316Z,63.00
2023-04-18T18:18:45.030Z,63.40
2023-04-18T18:22:26.897Z,62.90
2023-04-18T18:26:09.932Z,62.30
2023-04-18T18:29:52.723Z,62.80
2023-04-18T18:33:34.548Z,63.50
2023-04-18T18:37:16.301Z,63.70
2023-04-18T18:41:00.123Z,64.30
2023-04-18T18:44:43.529Z,64.30
2023-04-18T18:48:26.842Z,64.90
2023-04-18T18:52:08.598Z,64.40
2023-04-18T18:55:50.588Z,65.00
2023-04-18T18:59:32.390Z,65.10
2023-04-18T19:03:14.479Z,65.50
2023-04-18T19:06:56.345Z,65.60
2023-04-18T19:10:38.133Z,66.60
2023-04-18T19:14:19.891Z,66.30
2023-04-18T19:18:01.639Z,66.50
2023-04-18T19:21:45.957Z,66.70
2023-04-18T19:25:27.983Z,66.70
2023-04-18T19:29:10.715Z,67.00
2023-04-18T19:32:52.513Z,67.70
2023-04-18T19:36:34.280Z,66.90
2023-04-18T19:40:16.108Z,67.10
2023-04-18T19:43:57.841Z,66.90
2023-04-18T19:47:39.655Z,67.10
2023-04-18T19:51:21.546Z,67.80
2023-04-18T19:55:03.367Z,67.90
2023-04-18T19:58:46.033Z,68.30
2023-04-18T20:02:27.901Z,68.50
2023-04-18T20:06:09.883Z,69.10
2023-04-18T20:09:53.050Z,69.10
2023-04-18T20:13:36.655Z,69.10
2023-04-18T20:17:18.752Z,69.50
2023-04-18T20:21:00.580Z,69.70
2023-04-18T20:24:42.716Z,69.90
2023-04-18T20:28:24.542Z,70.00
2023-04-18T20:32:06.559Z,70.20
2023-04-18T20:35:48.297Z,70.50
2023-04-18T20:39:30.446Z,70.80
2023-04-18T20:43:13.541Z,71.00
2023-04-18T20:46:55.245Z,71.00
2023-04-18T20:50:37.107Z,71.40
2023-04-18T20:54:18.892Z,71.70
2023-04-18T20:58:00.701Z,72.00
2023-04-18T21:01:42.646Z,72.40
2023-04-18T21:05:24.482Z,72.70
2023-04-18T21:09:07.399Z,72.90
2023-04-18T21:12:49.200Z,73.00
2023-04-18T21:16:30.963Z,73.30
2023-04-18T21:20:12.850Z,73.50
2023-04-18T21:23:54.633Z,73.60
2023-04-18T21:27:39.249Z,73.90
2023-04-18T21:31:21.009Z,74.20
2023-04-18T21:35:02.848Z,74.70
2023-04-18T21:38:44.548Z,75.00
2023-04-18T21:42:26.912Z,75.40
2023-04-18T21:46:08.784Z,75.40
2023-04-18T21:49:50.714Z,75.70
2023-04-18T21:53:32.686Z,76.00
2023-04-18T21:57:14.436Z,76.30
2023-04-18T22:00:56.712Z,76.30
2023-04-18T22:04:42.529Z,76.60
2023-04-18T22:08:25.880Z,76.80
2023-04-18T22:12:08.329Z,77.10
2023-04-18T22:15:51.490Z,77.10
2023-04-18T22:19:33.347Z,77.30
2023-04-18T22:23:15.252Z,77.60
2023-04-18T22:26:57.065Z,77.70
2023-04-18T22:30:38.822Z,77.90
2023-04-18T22:34:20.750Z,78.00
2023-04-18T22:38:02.506Z,78.10
2023-04-18T22:41:44.273Z,78.20
2023-04-18T22:45:25.974Z,78.30
2023-04-18T22:49:07.717Z,78.40
2023-04-18T22:52:50.601Z,78.60
2023-04-18T22:56:32.337Z,78.70
2023-04-18T23:00:14.991Z,78.80
2023-04-18T23:03:56.942Z,78.90
2023-04-18T23:07:38.906Z,79.10
2023-04-18T23:11:21.196Z,79.20
2023-04-18T23:15:02.947Z,79.30
2023-04-18T23:18:44.686Z,79.50
2023-04-18T23:22:26.532Z,80.30
2023-04-18T23:26:15.303Z,79.90
2023-04-18T23:29:57.611Z,80.00
2023-04-18T23:33:39.361Z,80.30
2023-04-18T23:37:21.552Z,80.40
2023-04-18T23:41:03.511Z,80.70
2023-04-18T23:44:45.422Z,80.80
2023-04-18T23:48:27.185Z,81.00
2023-04-18T23:52:09.235Z,81.20
2023-04-18T23:55:51.264Z,81.20
2023-04-18T23:59:33.171Z,81.30
